sensor_id;sensor_type;location;lat;lon;timestamp;P1;durP1;ratioP1;P2;durP2;ratioP2
43756;SDS011;45574;41.864;12.462;2022-07-18T08:14:47;11.30;;;4.55;;
43756;SDS011;45574;41.864;12.462;2022-07-18T09:18:25;14.65;;;4.15;;
43756;SDS011;45574;41.864;12.462;2022-07-18T09:21:37;8.98;;;3.38;;
43756;SDS011;45574;41.864;12.462;2022-07-18T09:24:57;11.60;;;3.40;;
43756;SDS011;45574;41.864;12.462;2022-07-18T09:28:21;9.07;;;3.22;;
43756;SDS011;45574;41.864;12.462;2022-07-18T09:31:16;8.15;;;3.45;;
43756;SDS011;45574;41.864;12.462;2022-07-18T09:34:16;6.32;;;3.30;;
43756;SDS011;45574;41.864;12.462;2022-07-18T09:37:14;9.63;;;2.80;;
43756;SDS011;45574;41.864;12.462;2022-07-18T09:40:13;5.38;;;3.10;;
43756;SDS011;45574;41.864;12.462;2022-07-18T09:42:59;7.10;;;3.13;;
43756;SDS011;45574;41.864;12.462;2022-07-18T09:45:55;11.07;;;3.92;;
43756;SDS011;45574;41.864;12.462;2022-07-18T09:53:16;10.27;;;3.40;;
43756;SDS011;45574;41.864;12.462;2022-07-18T09:56:25;11.68;;;3.50;;
43756;SDS011;45574;41.864;12.462;2022-07-18T10:05:43;5.88;;;2.70;;
43756;SDS011;45574;41.864;12.462;2022-07-18T10:08:24;7.68;;;3.60;;
43756;SDS011;45574;41.864;12.462;2022-07-18T10:11:09;4.32;;;3.30;;
43756;SDS011;45574;41.864;12.462;2022-07-18T10:13:40;6.57;;;3.28;;
43756;SDS011;45574;41.864;12.462;2022-07-18T10:16:09;6.22;;;2.92;;
43756;SDS011;45574;41.864;12.462;2022-07-18T10:18:45;10.13;;;2.80;;
43756;SDS011;45574;41.864;12.462;2022-07-18T10:21:14;7.20;;;2.97;;
43756;SDS011;45574;41.864;12.462;2022-07-18T10:23:45;6.75;;;2.85;;
43756;SDS011;45574;41.864;12.462;2022-07-18T10:32:04;21.23;;;4.60;;
43756;SDS011;45574;41.864;12.462;2022-07-18T10:34:34;6.35;;;3.40;;
43756;SDS011;45574;41.864;12.462;2022-07-18T10:39:39;24.67;;;4.50;;
43756;SDS011;45574;41.864;12.462;2022-07-18T10:42:12;13.30;;;3.92;;
43756;SDS011;45574;41.864;12.462;2022-07-18T10:44:39;29.05;;;4.93;;
43756;SDS011;45574;41.864;12.462;2022-07-18T10:50:06;8.45;;;3.38;;
43756;SDS011;45574;41.864;12.462;2022-07-18T11:00:36;20.27;;;3.47;;
43756;SDS011;45574;41.864;12.462;2022-07-18T11:03:16;6.72;;;3.25;;
43756;SDS011;45574;41.864;12.462;2022-07-18T11:06:02;7.93;;;3.50;;
43756;SDS011;45574;41.864;12.462;2022-07-18T11:08:34;4.75;;;3.70;;
43756;SDS011;45574;41.864;12.462;2022-07-18T11:11:25;5.68;;;3.13;;
43756;SDS011;45574;41.864;12.462;2022-07-18T11:14:10;7.22;;;3.10;;
43756;SDS011;45574;41.864;12.462;2022-07-18T11:17:41;5.28;;;2.90;;
43756;SDS011;45574;41.864;12.462;2022-07-18T11:20:48;4.82;;;2.80;;
43756;SDS011;45574;41.864;12.462;2022-07-18T11:23:23;4.78;;;3.28;;
43756;SDS011;45574;41.864;12.462;2022-07-18T11:26:15;8.68;;;3.10;;
43756;SDS011;45574;41.864;12.462;2022-07-18T11:29:00;5.70;;;2.90;;
43756;SDS011;45574;41.864;12.462;2022-07-18T11:32:27;6.35;;;3.40;;
43756;SDS011;45574;41.864;12.462;2022-07-18T11:34:58;6.85;;;3.15;;
43756;SDS011;45574;41.864;12.462;2022-07-18T11:37:44;3.97;;;3.00;;
43756;SDS011;45574;41.864;12.462;2022-07-18T11:44:15;5.53;;;2.55;;
43756;SDS011;45574;41.864;12.462;2022-07-18T11:47:07;3.88;;;2.90;;
43756;SDS011;45574;41.864;12.462;2022-07-18T11:50:01;4.65;;;2.53;;
43756;SDS011;45574;41.864;12.462;2022-07-18T11:53:00;5.57;;;2.83;;
43756;SDS011;45574;41.864;12.462;2022-07-18T11:55:36;14.07;;;3.08;;
43756;SDS011;45574;41.864;12.462;2022-07-18T11:58:21;7.32;;;2.92;;
43756;SDS011;45574;41.864;12.462;2022-07-18T12:01:06;2.92;;;2.72;;
43756;SDS011;45574;41.864;12.462;2022-07-18T12:03:41;6.80;;;2.60;;
43756;SDS011;45574;41.864;12.462;2022-07-18T12:06:24;11.98;;;3.15;;
43756;SDS011;45574;41.864;12.462;2022-07-18T12:09:29;6.30;;;3.00;;
43756;SDS011;45574;41.864;12.462;2022-07-18T12:12:26;4.88;;;2.70;;
43756;SDS011;45574;41.864;12.462;2022-07-18T12:14:53;3.00;;;2.80;;
43756;SDS011;45574;41.864;12.462;2022-07-18T12:17:26;6.78;;;2.67;;
43756;SDS011;45574;41.864;12.462;2022-07-18T12:20:18;2.53;;;2.33;;
43756;SDS011;45574;41.864;12.462;2022-07-18T12:25:40;6.43;;;2.42;;
43756;SDS011;45574;41.864;12.462;2022-07-18T12:28:17;4.57;;;2.15;;
43756;SDS011;45574;41.864;12.462;2022-07-18T12:30:48;2.90;;;2.00;;
43756;SDS011;45574;41.864;12.462;2022-07-18T12:33:14;4.40;;;2.20;;
43756;SDS011;45574;41.864;12.462;2022-07-18T12:35:43;9.67;;;2.43;;
43756;SDS011;45574;41.864;12.462;2022-07-18T12:38:11;4.75;;;2.22;;
43756;SDS011;45574;41.864;12.462;2022-07-18T12:40:40;15.98;;;2.80;;
43756;SDS011;45574;41.864;12.462;2022-07-18T12:43:11;5.00;;;2.58;;
43756;SDS011;45574;41.864;12.462;2022-07-18T12:45:39;6.20;;;1.88;;
43756;SDS011;45574;41.864;12.462;2022-07-18T12:48:09;2.50;;;2.20;;
43756;SDS011;45574;41.864;12.462;2022-07-18T12:50:38;2.90;;;1.88;;
43756;SDS011;45574;41.864;12.462;2022-07-18T12:53:05;7.80;;;2.60;;
43756;SDS011;45574;41.864;12.462;2022-07-18T12:55:32;3.60;;;2.30;;
43756;SDS011;45574;41.864;12.462;2022-07-18T12:57:59;7.65;;;2.20;;
43756;SDS011;45574;41.864;12.462;2022-07-18T13:00:27;5.40;;;2.53;;
43756;SDS011;45574;41.864;12.462;2022-07-18T13:02:55;3.45;;;2.50;;
43756;SDS011;45574;41.864;12.462;2022-07-18T13:05:27;4.95;;;2.70;;
43756;SDS011;45574;41.864;12.462;2022-07-18T13:07:54;6.45;;;2.88;;
43756;SDS011;45574;41.864;12.462;2022-07-18T13:10:24;4.13;;;2.95;;
43756;SDS011;45574;41.864;12.462;2022-07-18T13:12:51;39.17;;;3.67;;
43756;SDS011;45574;41.864;12.462;2022-07-18T13:15:20;7.72;;;2.47;;
43756;SDS011;45574;41.864;12.462;2022-07-18T13:17:47;6.20;;;2.85;;
43756;SDS011;45574;41.864;12.462;2022-07-18T13:20:16;20.40;;;2.93;;
43756;SDS011;45574;41.864;12.462;2022-07-18T13:22:43;5.03;;;2.17;;
43756;SDS011;45574;41.864;12.462;2022-07-18T13:25:09;6.38;;;2.60;;
43756;SDS011;45574;41.864;12.462;2022-07-18T13:27:39;3.78;;;2.88;;
43756;SDS011;45574;41.864;12.462;2022-07-18T13:30:08;4.68;;;2.53;;
43756;SDS011;45574;41.864;12.462;2022-07-18T13:32:35;5.68;;;2.42;;
43756;SDS011;45574;41.864;12.462;2022-07-18T13:35:02;10.10;;;2.72;;
43756;SDS011;45574;41.864;12.462;2022-07-18T13:37:33;15.25;;;2.80;;
43756;SDS011;45574;41.864;12.462;2022-07-18T13:40:00;14.18;;;3.10;;
43756;SDS011;45574;41.864;12.462;2022-07-18T13:42:26;7.43;;;3.20;;
43756;SDS011;45574;41.864;12.462;2022-07-18T13:44:55;9.80;;;3.17;;
43756;SDS011;45574;41.864;12.462;2022-07-18T13:47:21;30.35;;;3.05;;
43756;SDS011;45574;41.864;12.462;2022-07-18T13:49:47;20.98;;;3.08;;
43756;SDS011;45574;41.864;12.462;2022-07-18T13:52:15;18.40;;;3.42;;
43756;SDS011;45574;41.864;12.462;2022-07-18T13:54:42;23.02;;;3.75;;
43756;SDS011;45574;41.864;12.462;2022-07-18T13:57:10;7.68;;;3.22;;
43756;SDS011;45574;41.864;12.462;2022-07-18T13:59:36;12.02;;;3.00;;
43756;SDS011;45574;41.864;12.462;2022-07-18T14:02:05;5.35;;;2.72;;
43756;SDS011;45574;41.864;12.462;2022-07-18T14:04:36;8.27;;;2.80;;
43756;SDS011;45574;41.864;12.462;2022-07-18T14:07:06;17.83;;;3.13;;
43756;SDS011;45574;41.864;12.462;2022-07-18T14:09:51;5.28;;;2.80;;
43756;SDS011;45574;41.864;12.462;2022-07-18T14:12:34;9.35;;;2.80;;
43756;SDS011;45574;41.864;12.462;2022-07-18T14:15:10;4.20;;;2.83;;
43756;SDS011;45574;41.864;12.462;2022-07-18T14:17:38;7.40;;;3.20;;
43756;SDS011;45574;41.864;12.462;2022-07-18T14:20:05;9.07;;;3.10;;
43756;SDS011;45574;41.864;12.462;2022-07-18T14:22:41;5.20;;;2.80;;
43756;SDS011;45574;41.864;12.462;2022-07-18T14:25:10;8.10;;;3.25;;
43756;SDS011;45574;41.864;12.462;2022-07-18T14:28:14;9.00;;;3.22;;
43756;SDS011;45574;41.864;12.462;2022-07-18T14:31:13;12.50;;;3.40;;
43756;SDS011;45574;41.864;12.462;2022-07-18T14:33:45;9.07;;;2.92;;
43756;SDS011;45574;41.864;12.462;2022-07-18T14:38:42;10.40;;;3.45;;
43756;SDS011;45574;41.864;12.462;2022-07-18T14:41:14;8.07;;;3.28;;
43756;SDS011;45574;41.864;12.462;2022-07-18T14:44:20;9.77;;;3.65;;
43756;SDS011;45574;41.864;12.462;2022-07-18T14:46:52;11.13;;;3.40;;
43756;SDS011;45574;41.864;12.462;2022-07-18T14:49:24;12.75;;;3.55;;
43756;SDS011;45574;41.864;12.462;2022-07-18T14:51:54;8.25;;;3.25;;
43756;SDS011;45574;41.864;12.462;2022-07-18T14:54:29;10.32;;;3.20;;
43756;SDS011;45574;41.864;12.462;2022-07-18T14:57:08;5.22;;;3.53;;
43756;SDS011;45574;41.864;12.462;2022-07-18T14:59:41;7.55;;;3.83;;
43756;SDS011;45574;41.864;12.462;2022-07-18T15:02:18;5.40;;;3.50;;
43756;SDS011;45574;41.864;12.462;2022-07-18T15:04:58;10.55;;;3.15;;
43756;SDS011;45574;41.864;12.462;2022-07-18T15:07:38;4.32;;;3.55;;
43756;SDS011;45574;41.864;12.462;2022-07-18T15:10:08;7.60;;;3.22;;
43756;SDS011;45574;41.864;12.462;2022-07-18T15:12:35;7.20;;;3.92;;
43756;SDS011;45574;41.864;12.462;2022-07-18T15:15:07;9.20;;;3.10;;
43756;SDS011;45574;41.864;12.462;2022-07-18T15:17:36;8.27;;;3.60;;
43756;SDS011;45574;41.864;12.462;2022-07-18T15:20:05;10.10;;;3.45;;
43756;SDS011;45574;41.864;12.462;2022-07-18T15:22:38;8.95;;;3.55;;
43756;SDS011;45574;41.864;12.462;2022-07-18T15:25:04;9.80;;;3.50;;
43756;SDS011;45574;41.864;12.462;2022-07-18T15:27:32;5.03;;;3.20;;
43756;SDS011;45574;41.864;12.462;2022-07-18T15:29:59;7.97;;;3.63;;
43756;SDS011;45574;41.864;12.462;2022-07-18T15:32:28;5.95;;;3.70;;
43756;SDS011;45574;41.864;12.462;2022-07-18T15:34:54;5.40;;;2.97;;
43756;SDS011;45574;41.864;12.462;2022-07-18T15:37:20;7.22;;;3.42;;
43756;SDS011;45574;41.864;12.462;2022-07-18T15:39:47;7.72;;;3.83;;
43756;SDS011;45574;41.864;12.462;2022-07-18T15:42:18;7.28;;;3.05;;
43756;SDS011;45574;41.864;12.462;2022-07-18T15:44:50;5.20;;;3.05;;
43756;SDS011;45574;41.864;12.462;2022-07-18T15:47:22;7.00;;;3.00;;
43756;SDS011;45574;41.864;12.462;2022-07-18T15:49:50;5.10;;;2.85;;
43756;SDS011;45574;41.864;12.462;2022-07-18T15:52:16;9.45;;;3.10;;
43756;SDS011;45574;41.864;12.462;2022-07-18T15:54:45;4.32;;;2.80;;
43756;SDS011;45574;41.864;12.462;2022-07-18T15:57:15;4.63;;;2.92;;
43756;SDS011;45574;41.864;12.462;2022-07-18T15:59:41;3.78;;;3.20;;
43756;SDS011;45574;41.864;12.462;2022-07-18T16:02:07;7.45;;;3.30;;
43756;SDS011;45574;41.864;12.462;2022-07-18T16:04:37;3.55;;;3.25;;
43756;SDS011;45574;41.864;12.462;2022-07-18T16:07:21;4.70;;;3.33;;
43756;SDS011;45574;41.864;12.462;2022-07-18T16:09:59;4.47;;;3.38;;
43756;SDS011;45574;41.864;12.462;2022-07-18T16:12:38;12.38;;;3.30;;
43756;SDS011;45574;41.864;12.462;2022-07-18T16:15:13;5.32;;;2.95;;
43756;SDS011;45574;41.864;12.462;2022-07-18T16:17:45;5.00;;;3.20;;
43756;SDS011;45574;41.864;12.462;2022-07-18T16:20:15;3.42;;;2.80;;
43756;SDS011;45574;41.864;12.462;2022-07-18T16:22:41;6.55;;;3.30;;
43756;SDS011;45574;41.864;12.462;2022-07-18T16:25:42;9.52;;;3.03;;
43756;SDS011;45574;41.864;12.462;2022-07-18T16:28:11;8.88;;;3.33;;
43756;SDS011;45574;41.864;12.462;2022-07-18T16:31:10;7.38;;;3.10;;
43756;SDS011;45574;41.864;12.462;2022-07-18T16:33:42;5.70;;;2.83;;
43756;SDS011;45574;41.864;12.462;2022-07-18T16:36:10;5.50;;;2.92;;
43756;SDS011;45574;41.864;12.462;2022-07-18T16:38:47;6.72;;;3.20;;
43756;SDS011;45574;41.864;12.462;2022-07-18T16:41:16;3.83;;;2.70;;
43756;SDS011;45574;41.864;12.462;2022-07-18T16:43:45;5.32;;;3.10;;
43756;SDS011;45574;41.864;12.462;2022-07-18T16:46:12;5.47;;;3.20;;
43756;SDS011;45574;41.864;12.462;2022-07-18T16:48:56;4.40;;;2.85;;
43756;SDS011;45574;41.864;12.462;2022-07-18T16:51:29;5.70;;;3.15;;
43756;SDS011;45574;41.864;12.462;2022-07-18T16:54:06;3.92;;;3.42;;
43756;SDS011;45574;41.864;12.462;2022-07-18T16:56:39;7.40;;;3.30;;
43756;SDS011;45574;41.864;12.462;2022-07-18T16:59:08;5.53;;;2.85;;
43756;SDS011;45574;41.864;12.462;2022-07-18T17:01:48;3.67;;;3.13;;
43756;SDS011;45574;41.864;12.462;2022-07-18T17:04:34;5.65;;;3.00;;
43756;SDS011;45574;41.864;12.462;2022-07-18T17:07:17;4.35;;;3.42;;
43756;SDS011;45574;41.864;12.462;2022-07-18T17:10:22;5.22;;;3.20;;
43756;SDS011;45574;41.864;12.462;2022-07-18T17:13:08;5.18;;;3.20;;
43756;SDS011;45574;41.864;12.462;2022-07-18T17:15:57;6.30;;;3.10;;
43756;SDS011;45574;41.864;12.462;2022-07-18T17:18:29;3.28;;;2.97;;
43756;SDS011;45574;41.864;12.462;2022-07-18T17:21:03;6.68;;;3.40;;
43756;SDS011;45574;41.864;12.462;2022-07-18T17:23:47;3.25;;;2.92;;
43756;SDS011;45574;41.864;12.462;2022-07-18T17:26:23;6.43;;;3.38;;
43756;SDS011;45574;41.864;12.462;2022-07-18T17:29:17;4.75;;;3.20;;
43756;SDS011;45574;41.864;12.462;2022-07-18T17:31:58;8.85;;;3.08;;
43756;SDS011;45574;41.864;12.462;2022-07-18T17:34:56;3.88;;;3.42;;
43756;SDS011;45574;41.864;12.462;2022-07-18T17:37:49;5.07;;;3.40;;
43756;SDS011;45574;41.864;12.462;2022-07-18T17:40:43;4.75;;;2.97;;
43756;SDS011;45574;41.864;12.462;2022-07-18T17:43:17;5.65;;;3.10;;
43756;SDS011;45574;41.864;12.462;2022-07-18T17:45:50;7.70;;;2.95;;
43756;SDS011;45574;41.864;12.462;2022-07-18T17:48:35;6.57;;;3.05;;
43756;SDS011;45574;41.864;12.462;2022-07-18T17:51:05;9.35;;;3.08;;
43756;SDS011;45574;41.864;12.462;2022-07-18T17:53:36;6.50;;;3.85;;
43756;SDS011;45574;41.864;12.462;2022-07-18T17:56:30;7.07;;;3.17;;
43756;SDS011;45574;41.864;12.462;2022-07-18T17:59:03;8.73;;;3.40;;
43756;SDS011;45574;41.864;12.462;2022-07-18T18:01:33;7.13;;;3.20;;
43756;SDS011;45574;41.864;12.462;2022-07-18T18:04:12;4.85;;;3.47;;
43756;SDS011;45574;41.864;12.462;2022-07-18T18:07:30;7.88;;;3.35;;
43756;SDS011;45574;41.864;12.462;2022-07-18T18:14:15;7.75;;;4.00;;
43756;SDS011;45574;41.864;12.462;2022-07-18T18:17:15;8.32;;;4.18;;
43756;SDS011;45574;41.864;12.462;2022-07-18T18:20:21;4.97;;;4.32;;
43756;SDS011;45574;41.864;12.462;2022-07-18T18:22:56;9.45;;;4.70;;
43756;SDS011;45574;41.864;12.462;2022-07-18T18:25:55;11.10;;;5.40;;
43756;SDS011;45574;41.864;12.462;2022-07-18T18:29:05;8.73;;;6.40;;
43756;SDS011;45574;41.864;12.462;2022-07-18T18:32:03;10.60;;;6.07;;
43756;SDS011;45574;41.864;12.462;2022-07-18T18:35:32;7.90;;;5.40;;
43756;SDS011;45574;41.864;12.462;2022-07-18T18:38:06;10.00;;;5.07;;
43756;SDS011;45574;41.864;12.462;2022-07-18T18:40:42;7.95;;;4.93;;
43756;SDS011;45574;41.864;12.462;2022-07-18T18:43:17;6.85;;;4.30;;
43756;SDS011;45574;41.864;12.462;2022-07-18T18:45:44;8.23;;;4.65;;
43756;SDS011;45574;41.864;12.462;2022-07-18T18:48:15;9.32;;;4.70;;
43756;SDS011;45574;41.864;12.462;2022-07-18T18:50:51;12.73;;;4.88;;
43756;SDS011;45574;41.864;12.462;2022-07-18T18:53:28;18.17;;;4.97;;
43756;SDS011;45574;41.864;12.462;2022-07-18T18:55:54;10.23;;;4.40;;
43756;SDS011;45574;41.864;12.462;2022-07-18T18:58:32;9.80;;;4.50;;
43756;SDS011;45574;41.864;12.462;2022-07-18T19:01:01;9.00;;;4.43;;
43756;SDS011;45574;41.864;12.462;2022-07-18T19:03:36;10.75;;;4.53;;
43756;SDS011;45574;41.864;12.462;2022-07-18T19:06:06;6.97;;;3.75;;
43756;SDS011;45574;41.864;12.462;2022-07-18T19:08:41;6.75;;;4.70;;
43756;SDS011;45574;41.864;12.462;2022-07-18T19:11:09;5.70;;;3.88;;
43756;SDS011;45574;41.864;12.462;2022-07-18T19:13:35;8.63;;;4.10;;
43756;SDS011;45574;41.864;12.462;2022-07-18T19:16:21;9.70;;;4.43;;
43756;SDS011;45574;41.864;12.462;2022-07-18T19:18:50;7.88;;;4.35;;
43756;SDS011;45574;41.864;12.462;2022-07-18T19:21:17;7.18;;;4.40;;
43756;SDS011;45574;41.864;12.462;2022-07-18T19:23:43;8.10;;;4.10;;
43756;SDS011;45574;41.864;12.462;2022-07-18T19:26:10;6.07;;;4.35;;
43756;SDS011;45574;41.864;12.462;2022-07-18T19:28:39;6.90;;;4.30;;
43756;SDS011;45574;41.864;12.462;2022-07-18T19:31:08;4.75;;;3.92;;
43756;SDS011;45574;41.864;12.462;2022-07-18T19:33:34;5.55;;;3.80;;
43756;SDS011;45574;41.864;12.462;2022-07-18T19:36:02;11.50;;;4.43;;
43756;SDS011;45574;41.864;12.462;2022-07-18T19:38:29;5.68;;;3.83;;
43756;SDS011;45574;41.864;12.462;2022-07-18T19:40:58;6.32;;;4.95;;
43756;SDS011;45574;41.864;12.462;2022-07-18T19:43:29;11.55;;;5.03;;
43756;SDS011;45574;41.864;12.462;2022-07-18T19:46:40;12.05;;;5.25;;
43756;SDS011;45574;41.864;12.462;2022-07-18T19:49:17;8.17;;;4.70;;
43756;SDS011;45574;41.864;12.462;2022-07-18T19:53:00;8.73;;;4.97;;
43756;SDS011;45574;41.864;12.462;2022-07-18T19:55:35;6.60;;;4.90;;
43756;SDS011;45574;41.864;12.462;2022-07-18T19:58:15;12.70;;;5.55;;
43756;SDS011;45574;41.864;12.462;2022-07-18T20:00:46;9.35;;;4.60;;
43756;SDS011;45574;41.864;12.462;2022-07-18T20:03:23;10.35;;;5.15;;
43756;SDS011;45574;41.864;12.462;2022-07-18T20:06:05;7.68;;;4.88;;
43756;SDS011;45574;41.864;12.462;2022-07-18T20:08:42;17.58;;;5.30;;
43756;SDS011;45574;41.864;12.462;2022-07-18T20:11:21;11.68;;;5.38;;
43756;SDS011;45574;41.864;12.462;2022-07-18T20:14:03;8.45;;;5.80;;
43756;SDS011;45574;41.864;12.462;2022-07-18T20:16:36;8.57;;;6.05;;
43756;SDS011;45574;41.864;12.462;2022-07-18T20:19:11;11.10;;;6.72;;
43756;SDS011;45574;41.864;12.462;2022-07-18T20:21:44;13.70;;;6.83;;
43756;SDS011;45574;41.864;12.462;2022-07-18T20:24:32;12.27;;;6.80;;
43756;SDS011;45574;41.864;12.462;2022-07-18T20:27:29;13.43;;;7.05;;
43756;SDS011;45574;41.864;12.462;2022-07-18T20:30:13;11.45;;;6.80;;
43756;SDS011;45574;41.864;12.462;2022-07-18T20:33:08;10.85;;;7.20;;
43756;SDS011;45574;41.864;12.462;2022-07-18T20:35:57;11.30;;;6.75;;
43756;SDS011;45574;41.864;12.462;2022-07-18T20:38:30;13.85;;;7.15;;
43756;SDS011;45574;41.864;12.462;2022-07-18T20:41:13;11.93;;;6.28;;
43756;SDS011;45574;41.864;12.462;2022-07-18T20:44:16;9.35;;;6.05;;
43756;SDS011;45574;41.864;12.462;2022-07-18T20:47:08;12.80;;;6.18;;
43756;SDS011;45574;41.864;12.462;2022-07-18T20:49:40;8.27;;;5.30;;
43756;SDS011;45574;41.864;12.462;2022-07-18T20:52:29;10.40;;;5.63;;
43756;SDS011;45574;41.864;12.462;2022-07-18T20:55:08;7.55;;;4.68;;
43756;SDS011;45574;41.864;12.462;2022-07-18T20:57:42;7.80;;;5.03;;
43756;SDS011;45574;41.864;12.462;2022-07-18T21:00:27;8.50;;;5.20;;
43756;SDS011;45574;41.864;12.462;2022-07-18T21:03:26;9.10;;;4.45;;
43756;SDS011;45574;41.864;12.462;2022-07-18T21:06:05;6.18;;;3.92;;
43756;SDS011;45574;41.864;12.462;2022-07-18T21:08:42;6.55;;;4.53;;
43756;SDS011;45574;41.864;12.462;2022-07-18T21:11:18;9.43;;;4.65;;
43756;SDS011;45574;41.864;12.462;2022-07-18T21:13:55;10.80;;;5.97;;
43756;SDS011;45574;41.864;12.462;2022-07-18T21:16:58;12.02;;;5.68;;
43756;SDS011;45574;41.864;12.462;2022-07-18T21:19:42;10.35;;;5.72;;
43756;SDS011;45574;41.864;12.462;2022-07-18T21:22:16;12.77;;;5.93;;
43756;SDS011;45574;41.864;12.462;2022-07-18T21:24:45;10.00;;;6.10;;
43756;SDS011;45574;41.864;12.462;2022-07-18T21:27:26;10.60;;;5.90;;
43756;SDS011;45574;41.864;12.462;2022-07-18T21:30:25;8.57;;;5.95;;
43756;SDS011;45574;41.864;12.462;2022-07-18T21:33:35;14.45;;;6.20;;
43756;SDS011;45574;41.864;12.462;2022-07-18T21:36:09;12.35;;;5.97;;
43756;SDS011;45574;41.864;12.462;2022-07-18T21:38:49;10.98;;;5.55;;
43756;SDS011;45574;41.864;12.462;2022-07-18T21:41:26;8.27;;;5.68;;
43756;SDS011;45574;41.864;12.462;2022-07-18T21:47:04;10.82;;;5.82;;
43756;SDS011;45574;41.864;12.462;2022-07-18T21:49:43;13.52;;;5.15;;
43756;SDS011;45574;41.864;12.462;2022-07-18T21:52:23;9.25;;;5.50;;
43756;SDS011;45574;41.864;12.462;2022-07-18T21:54:52;9.18;;;5.95;;
43756;SDS011;45574;41.864;12.462;2022-07-18T21:57:26;10.10;;;5.43;;
43756;SDS011;45574;41.864;12.462;2022-07-18T22:00:04;14.85;;;5.38;;
43756;SDS011;45574;41.864;12.462;2022-07-18T22:02:43;9.48;;;5.68;;
43756;SDS011;45574;41.864;12.462;2022-07-18T22:05:21;10.10;;;5.38;;
43756;SDS011;45574;41.864;12.462;2022-07-18T22:07:50;9.88;;;5.10;;
43756;SDS011;45574;41.864;12.462;2022-07-18T22:10:24;8.75;;;5.60;;
43756;SDS011;45574;41.864;12.462;2022-07-18T22:13:00;7.47;;;4.75;;
43756;SDS011;45574;41.864;12.462;2022-07-18T22:15:31;9.63;;;5.20;;
43756;SDS011;45574;41.864;12.462;2022-07-18T22:17:57;8.52;;;5.45;;
43756;SDS011;45574;41.864;12.462;2022-07-18T22:20:23;13.18;;;4.97;;
43756;SDS011;45574;41.864;12.462;2022-07-18T22:22:50;9.48;;;4.97;;
43756;SDS011;45574;41.864;12.462;2022-07-18T22:25:21;12.27;;;4.55;;
43756;SDS011;45574;41.864;12.462;2022-07-18T22:27:49;6.28;;;3.85;;
43756;SDS011;45574;41.864;12.462;2022-07-18T22:30:18;10.00;;;4.07;;
43756;SDS011;45574;41.864;12.462;2022-07-18T22:32:48;6.18;;;4.13;;
43756;SDS011;45574;41.864;12.462;2022-07-18T22:35:24;8.15;;;4.03;;
43756;SDS011;45574;41.864;12.462;2022-07-18T22:37:59;9.98;;;4.35;;
43756;SDS011;45574;41.864;12.462;2022-07-18T22:40:27;4.80;;;4.30;;
43756;SDS011;45574;41.864;12.462;2022-07-18T22:43:00;10.20;;;4.45;;
43756;SDS011;45574;41.864;12.462;2022-07-18T22:45:30;12.98;;;4.55;;
43756;SDS011;45574;41.864;12.462;2022-07-18T22:48:01;8.27;;;4.82;;
43756;SDS011;45574;41.864;12.462;2022-07-18T22:50:33;9.65;;;4.60;;
43756;SDS011;45574;41.864;12.462;2022-07-18T22:53:00;9.48;;;4.60;;
43756;SDS011;45574;41.864;12.462;2022-07-18T22:55:32;10.02;;;4.97;;
43756;SDS011;45574;41.864;12.462;2022-07-18T22:58:04;8.40;;;5.35;;
43756;SDS011;45574;41.864;12.462;2022-07-18T23:00:35;7.95;;;4.80;;
43756;SDS011;45574;41.864;12.462;2022-07-18T23:03:16;9.90;;;5.30;;
43756;SDS011;45574;41.864;12.462;2022-07-18T23:05:42;10.90;;;4.90;;
43756;SDS011;45574;41.864;12.462;2022-07-18T23:08:22;7.00;;;4.35;;
43756;SDS011;45574;41.864;12.462;2022-07-18T23:10:48;8.60;;;4.25;;
43756;SDS011;45574;41.864;12.462;2022-07-18T23:13:14;11.57;;;4.75;;
43756;SDS011;45574;41.864;12.462;2022-07-18T23:15:43;7.47;;;4.22;;
43756;SDS011;45574;41.864;12.462;2022-07-18T23:18:11;11.63;;;4.68;;
43756;SDS011;45574;41.864;12.462;2022-07-18T23:20:40;6.82;;;4.50;;
43756;SDS011;45574;41.864;12.462;2022-07-18T23:23:17;6.85;;;4.50;;
43756;SDS011;45574;41.864;12.462;2022-07-18T23:25:48;12.23;;;4.53;;
43756;SDS011;45574;41.864;12.462;2022-07-18T23:28:18;8.65;;;4.75;;
43756;SDS011;45574;41.864;12.462;2022-07-18T23:30:55;6.40;;;4.38;;
43756;SDS011;45574;41.864;12.462;2022-07-18T23:33:27;7.75;;;4.05;;
43756;SDS011;45574;41.864;12.462;2022-07-18T23:36:09;7.60;;;4.72;;
43756;SDS011;45574;41.864;12.462;2022-07-18T23:38:42;5.13;;;4.22;;
43756;SDS011;45574;41.864;12.462;2022-07-18T23:41:14;7.32;;;3.95;;
43756;SDS011;45574;41.864;12.462;2022-07-18T23:43:46;10.93;;;4.53;;
43756;SDS011;45574;41.864;12.462;2022-07-18T23:46:55;6.55;;;4.00;;
43756;SDS011;45574;41.864;12.462;2022-07-18T23:49:35;11.98;;;4.63;;
43756;SDS011;45574;41.864;12.462;2022-07-18T23:52:04;8.77;;;4.55;;
43756;SDS011;45574;41.864;12.462;2022-07-18T23:54:33;6.93;;;4.57;;
43756;SDS011;45574;41.864;12.462;2022-07-18T23:57:06;6.90;;;4.03;;
43756;SDS011;45574;41.864;12.462;2022-07-18T23:59:35;6.60;;;4.85;;
